Fort Chipewyan Airport
CYPY : now visible

Airfield :











YOU CAN JOIN US ON...

 
LOGIN :

Register | Disclaimer

   EN    FR    IT 

 









Legend :    VFR   Marginal VFR   IFR   Intensive IFR   Very Intensive IFR
Visi :
Ceiling :
>= 8 km
>= 3000ft
5 to 8 km
1000 to 3000 ft
1500m to 5 km
500 to 1000 ft
800 to 1500m
200 to 500 ft
< 800m
< 200 ft
Symbols :   Thunderstorms  Fog  Heavy snow  Heavy precipitations  Wind > 20 kt






- Airport Elevation : 761 ft
- IATA code : YPY


CYPY - Fort Chipewyan

CURRENT METAR :
  • 240500Z AUTO 09006KT 9SM CLR 02/M05 A3003 RMK SLP185

EXPIRED METARs :
  • 240400Z AUTO 08008KT 9SM CLR 03/M05 A3003 RMK SLP184
  • 240300Z AUTO 07007KT 9SM CLR 04/M05 A3002 RMK SLP181
  • 240200Z AUTO 08008KT 9SM CLR 06/M04 A3002 RMK SLP179
  • 240100Z AUTO 09009KT 9SM CLR 08/M04 A3002 RMK SLP180

TAF TAF CYPY
Valid from the 24 at 00:00 until the 24 at 06:00 UTC


232340Z 2400/2406 12012KT P6SM FEW060
BECMG 2401/2403 07008KT RMK FCST BASED ON AUTO OBS. NXT FCST BY 241200Z
CZEG FIR / North America



MET'MAP, your aeronautical weather chart ! - Copyright ORBIFLY December 2007 - Disclaimer

ORBIFLY MET'MAP TEAM :

Programming & Development : Alexandra Zaïnal
Original concept : Baudouin d'Aumeries
Technical & hardware support : Manuel Goepfert
Assistance : Marc-Olivier Méhu




SOURCES & CREDITS :

   NOAA       Earth
Advisory